sensor_id;sensor_type;location;lat;lon;timestamp;pressure;altitude;pressure_sealevel;temperature;humidity
55550;BME280;41397;49.972;18.944;2023-04-16T00:02:34;101509.63;;;12.86;65.98
55550;BME280;41397;49.972;18.944;2023-04-16T00:05:36;101508.76;;;12.86;66.04
55550;BME280;41397;49.972;18.944;2023-04-16T00:08:37;101511.01;;;12.81;65.92
55550;BME280;41397;49.972;18.944;2023-04-16T00:11:40;101512.88;;;12.80;66.11
55550;BME280;41397;49.972;18.944;2023-04-16T00:14:42;101503.26;;;12.75;66.09
55550;BME280;41397;49.972;18.944;2023-04-16T00:17:43;101511.24;;;12.78;66.17
55550;BME280;41397;49.972;18.944;2023-04-16T00:20:46;101517.74;;;12.77;65.94
55550;BME280;41397;49.972;18.944;2023-04-16T00:23:47;101516.11;;;12.74;65.78
55550;BME280;41397;49.972;18.944;2023-04-16T00:26:50;101519.97;;;12.72;65.60
55550;BME280;41397;49.972;18.944;2023-04-16T00:29:51;101525.46;;;12.72;65.83
55550;BME280;41397;49.972;18.944;2023-04-16T00:32:52;101533.04;;;12.68;65.91
55550;BME280;41397;49.972;18.944;2023-04-16T00:35:54;101529.57;;;12.66;65.95
55550;BME280;41397;49.972;18.944;2023-04-16T00:38:58;101536.03;;;12.65;65.71
55550;BME280;41397;49.972;18.944;2023-04-16T00:41:59;101541.41;;;12.66;66.05
55550;BME280;41397;49.972;18.944;2023-04-16T00:45:04;101533.53;;;12.62;66.17
55550;BME280;41397;49.972;18.944;2023-04-16T00:48:05;101535.27;;;12.63;66.18
55550;BME280;41397;49.972;18.944;2023-04-16T00:51:07;101536.42;;;12.60;66.26
55550;BME280;41397;49.972;18.944;2023-04-16T00:54:09;101534.41;;;12.62;65.88
55550;BME280;41397;49.972;18.944;2023-04-16T00:57:13;101545.52;;;12.61;65.85
55550;BME280;41397;49.972;18.944;2023-04-16T01:00:15;101542.88;;;12.59;66.06
55550;BME280;41397;49.972;18.944;2023-04-16T01:03:16;101546.88;;;12.55;66.50
55550;BME280;41397;49.972;18.944;2023-04-16T01:06:18;101543.23;;;12.55;66.18
55550;BME280;41397;49.972;18.944;2023-04-16T01:09:19;101552.37;;;12.55;66.10
55550;BME280;41397;49.972;18.944;2023-04-16T01:12:21;101562.57;;;12.53;66.40
55550;BME280;41397;49.972;18.944;2023-04-16T01:15:23;101565.66;;;12.49;66.44
55550;BME280;41397;49.972;18.944;2023-04-16T01:18:25;101556.80;;;12.45;66.75
55550;BME280;41397;49.972;18.944;2023-04-16T01:21:26;101561.53;;;12.43;66.79
55550;BME280;41397;49.972;18.944;2023-04-16T01:24:28;101566.05;;;12.44;66.51
55550;BME280;41397;49.972;18.944;2023-04-16T01:27:30;101570.52;;;12.45;66.39
55550;BME280;41397;49.972;18.944;2023-04-16T01:30:33;101559.55;;;12.45;66.44
55550;BME280;41397;49.972;18.944;2023-04-16T01:33:34;101565.03;;;12.45;66.29
55550;BME280;41397;49.972;18.944;2023-04-16T01:36:36;101563.16;;;12.46;66.55
55550;BME280;41397;49.972;18.944;2023-04-16T01:39:38;101559.66;;;12.43;66.47
55550;BME280;41397;49.972;18.944;2023-04-16T01:42:39;101560.66;;;12.42;66.76
55550;BME280;41397;49.972;18.944;2023-04-16T01:45:41;101561.77;;;12.40;66.79
55550;BME280;41397;49.972;18.944;2023-04-16T01:48:43;101556.40;;;12.38;66.80
55550;BME280;41397;49.972;18.944;2023-04-16T01:51:46;101562.12;;;12.35;66.61
55550;BME280;41397;49.972;18.944;2023-04-16T01:54:48;101558.41;;;12.36;66.58
55550;BME280;41397;49.972;18.944;2023-04-16T01:57:50;101560.27;;;12.36;66.60
55550;BME280;41397;49.972;18.944;2023-04-16T02:00:51;101560.27;;;12.36;66.26
55550;BME280;41397;49.972;18.944;2023-04-16T02:03:54;101572.21;;;12.35;66.06
55550;BME280;41397;49.972;18.944;2023-04-16T02:06:55;101565.63;;;12.37;65.66
55550;BME280;41397;49.972;18.944;2023-04-16T02:09:57;101562.12;;;12.35;65.73
55550;BME280;41397;49.972;18.944;2023-04-16T02:12:58;101560.48;;;12.33;65.58
55550;BME280;41397;49.972;18.944;2023-04-16T02:16:03;101574.34;;;12.31;65.58
55550;BME280;41397;49.972;18.944;2023-04-16T02:19:05;101572.70;;;12.29;65.54
55550;BME280;41397;49.972;18.944;2023-04-16T02:22:06;101577.31;;;12.28;65.06
55550;BME280;41397;49.972;18.944;2023-04-16T02:25:08;101576.55;;;12.26;65.22
55550;BME280;41397;49.972;18.944;2023-04-16T02:28:12;101572.17;;;12.24;65.16
55550;BME280;41397;49.972;18.944;2023-04-16T02:31:14;101573.04;;;12.24;65.20
55550;BME280;41397;49.972;18.944;2023-04-16T02:34:20;101581.64;;;12.19;65.25
55550;BME280;41397;49.972;18.944;2023-04-16T02:37:22;101585.49;;;12.17;65.19
55550;BME280;41397;49.972;18.944;2023-04-16T02:40:24;101593.19;;;12.12;65.41
55550;BME280;41397;49.972;18.944;2023-04-16T02:43:26;101588.80;;;12.09;65.64
55550;BME280;41397;49.972;18.944;2023-04-16T02:46:28;101593.63;;;12.06;65.38
55550;BME280;41397;49.972;18.944;2023-04-16T02:49:29;101600.11;;;12.05;65.24
55550;BME280;41397;49.972;18.944;2023-04-16T02:52:31;101610.30;;;12.03;65.50
55550;BME280;41397;49.972;18.944;2023-04-16T02:55:33;101612.31;;;12.01;65.42
55550;BME280;41397;49.972;18.944;2023-04-16T02:58:34;101607.16;;;11.96;65.57
55550;BME280;41397;49.972;18.944;2023-04-16T03:01:36;101612.52;;;11.97;65.60
55550;BME280;41397;49.972;18.944;2023-04-16T03:04:37;101609.02;;;11.95;65.72
55550;BME280;41397;49.972;18.944;2023-04-16T03:07:39;101617.03;;;11.98;65.84
55550;BME280;41397;49.972;18.944;2023-04-16T03:10:40;101611.65;;;11.97;65.69
55550;BME280;41397;49.972;18.944;2023-04-16T03:13:42;101614.52;;;11.95;66.07
55550;BME280;41397;49.972;18.944;2023-04-16T03:16:43;101614.61;;;11.94;65.88
55550;BME280;41397;49.972;18.944;2023-04-16T03:19:45;101621.10;;;11.93;66.05
55550;BME280;41397;49.972;18.944;2023-04-16T03:22:46;101628.55;;;11.91;66.11
55550;BME280;41397;49.972;18.944;2023-04-16T03:25:48;101634.03;;;11.91;66.19
55550;BME280;41397;49.972;18.944;2023-04-16T03:28:50;101640.81;;;11.85;66.08
55550;BME280;41397;49.972;18.944;2023-04-16T03:31:51;101643.48;;;11.87;66.21
55550;BME280;41397;49.972;18.944;2023-04-16T03:34:53;101634.37;;;11.86;66.14
55550;BME280;41397;49.972;18.944;2023-04-16T03:37:54;101639.75;;;11.88;65.89
55550;BME280;41397;49.972;18.944;2023-04-16T03:40:58;101646.30;;;11.85;66.11
55550;BME280;41397;49.972;18.944;2023-04-16T03:43:59;101647.30;;;11.84;66.12
55550;BME280;41397;49.972;18.944;2023-04-16T03:47:00;101662.54;;;11.88;66.35
55550;BME280;41397;49.972;18.944;2023-04-16T03:50:02;101659.80;;;11.88;66.14
55550;BME280;41397;49.972;18.944;2023-04-16T03:53:06;101663.32;;;11.90;66.28
55550;BME280;41397;49.972;18.944;2023-04-16T03:56:07;101670.44;;;11.93;66.41
55550;BME280;41397;49.972;18.944;2023-04-16T03:59:09;101677.56;;;11.95;66.45
55550;BME280;41397;49.972;18.944;2023-04-16T04:02:10;101682.05;;;11.96;66.41
55550;BME280;41397;49.972;18.944;2023-04-16T04:05:14;101681.18;;;11.96;66.78
55550;BME280;41397;49.972;18.944;2023-04-16T04:08:15;101680.95;;;11.99;66.95
55550;BME280;41397;49.972;18.944;2023-04-16T04:11:17;101689.94;;;12.01;66.77
55550;BME280;41397;49.972;18.944;2023-04-16T04:14:18;101694.87;;;12.09;67.11
55550;BME280;41397;49.972;18.944;2023-04-16T04:17:22;101696.59;;;12.23;67.16
55550;BME280;41397;49.972;18.944;2023-04-16T04:20:23;101689.70;;;12.41;66.64
55550;BME280;41397;49.972;18.944;2023-04-16T04:23:25;101708.29;;;12.61;66.41
55550;BME280;41397;49.972;18.944;2023-04-16T04:26:26;101708.05;;;12.88;67.08
55550;BME280;41397;49.972;18.944;2023-04-16T04:29:30;101709.93;;;13.23;66.85
55550;BME280;41397;49.972;18.944;2023-04-16T04:32:31;101708.30;;;13.56;65.79
55550;BME280;41397;49.972;18.944;2023-04-16T04:35:32;101715.95;;;13.86;65.84
55550;BME280;41397;49.972;18.944;2023-04-16T04:38:34;101716.94;;;14.19;65.28
55550;BME280;41397;49.972;18.944;2023-04-16T04:41:38;101720.00;;;14.59;64.24
55550;BME280;41397;49.972;18.944;2023-04-16T04:44:39;101711.39;;;14.96;63.23
55550;BME280;41397;49.972;18.944;2023-04-16T04:47:41;101710.95;;;15.12;62.21
55550;BME280;41397;49.972;18.944;2023-04-16T04:50:44;101722.77;;;15.24;60.92
55550;BME280;41397;49.972;18.944;2023-04-16T04:53:46;101719.63;;;15.28;59.66
55550;BME280;41397;49.972;18.944;2023-04-16T04:56:48;101725.62;;;15.34;60.04
55550;BME280;41397;49.972;18.944;2023-04-16T04:59:50;101724.71;;;15.33;59.61
55550;BME280;41397;49.972;18.944;2023-04-16T05:02:51;101725.82;;;15.42;60.01
55550;BME280;41397;49.972;18.944;2023-04-16T05:05:54;101727.21;;;15.57;59.33
55550;BME280;41397;49.972;18.944;2023-04-16T05:08:55;101727.64;;;15.73;59.21
55550;BME280;41397;49.972;18.944;2023-04-16T05:11:56;101731.58;;;16.02;56.95
55550;BME280;41397;49.972;18.944;2023-04-16T05:14:58;101734.14;;;16.24;55.57
55550;BME280;41397;49.972;18.944;2023-04-16T05:18:02;101739.66;;;16.24;55.43
55550;BME280;41397;49.972;18.944;2023-04-16T05:21:04;101738.23;;;16.30;55.50
55550;BME280;41397;49.972;18.944;2023-04-16T05:24:05;101739.88;;;16.52;54.51
55550;BME280;41397;49.972;18.944;2023-04-16T05:27:06;101736.42;;;16.69;53.36
55550;BME280;41397;49.972;18.944;2023-04-16T05:30:10;101746.12;;;17.04;53.59
55550;BME280;41397;49.972;18.944;2023-04-16T05:33:11;101738.99;;;17.30;52.79
55550;BME280;41397;49.972;18.944;2023-04-16T05:36:16;101743.59;;;17.69;52.79
55550;BME280;41397;49.972;18.944;2023-04-16T05:39:45;101748.51;;;17.94;50.58
55550;BME280;41397;49.972;18.944;2023-04-16T05:42:53;101759.29;;;18.35;50.11
55550;BME280;41397;49.972;18.944;2023-04-16T05:45:55;101763.13;;;18.52;49.57
55550;BME280;41397;49.972;18.944;2023-04-16T05:48:56;101765.64;;;18.82;49.73
55550;BME280;41397;49.972;18.944;2023-04-16T05:51:58;101766.86;;;19.16;49.71
55550;BME280;41397;49.972;18.944;2023-04-16T05:54:59;101771.27;;;19.44;48.13
55550;BME280;41397;49.972;18.944;2023-04-16T05:58:01;101776.25;;;19.77;48.07
55550;BME280;41397;49.972;18.944;2023-04-16T06:01:04;101777.20;;;20.11;47.45
55550;BME280;41397;49.972;18.944;2023-04-16T06:04:07;101774.90;;;20.33;47.03
55550;BME280;41397;49.972;18.944;2023-04-16T06:07:09;101769.30;;;20.59;46.13
55550;BME280;41397;49.972;18.944;2023-04-16T06:10:10;101771.96;;;20.69;45.74
55550;BME280;41397;49.972;18.944;2023-04-16T06:13:12;101776.49;;;20.78;45.21
55550;BME280;41397;49.972;18.944;2023-04-16T06:16:13;101789.56;;;20.86;45.73
55550;BME280;41397;49.972;18.944;2023-04-16T06:19:15;101786.63;;;20.87;45.29
55550;BME280;41397;49.972;18.944;2023-04-16T06:22:16;101783.82;;;20.79;45.08
55550;BME280;41397;49.972;18.944;2023-04-16T06:25:18;101786.38;;;20.38;45.49
55550;BME280;41397;49.972;18.944;2023-04-16T06:28:20;101778.20;;;20.36;46.44
55550;BME280;41397;49.972;18.944;2023-04-16T06:31:21;101793.05;;;20.19;47.59
55550;BME280;41397;49.972;18.944;2023-04-16T06:34:22;101785.57;;;19.93;47.57
55550;BME280;41397;49.972;18.944;2023-04-16T06:37:26;101798.31;;;19.78;47.30
55550;BME280;41397;49.972;18.944;2023-04-16T06:40:27;101794.98;;;19.57;48.32
55550;BME280;41397;49.972;18.944;2023-04-16T06:43:29;101799.45;;;18.86;49.59
55550;BME280;41397;49.972;18.944;2023-04-16T06:46:33;101798.77;;;19.02;50.55
55550;BME280;41397;49.972;18.944;2023-04-16T06:49:35;101798.19;;;18.98;50.55
55550;BME280;41397;49.972;18.944;2023-04-16T06:52:37;101798.09;;;18.90;50.92
55550;BME280;41397;49.972;18.944;2023-04-16T06:55:38;101798.68;;;18.94;50.93
55550;BME280;41397;49.972;18.944;2023-04-16T07:02:01;101802.30;;;18.94;50.30
55550;BME280;41397;49.972;18.944;2023-04-16T07:05:22;101804.87;;;19.05;51.17
55550;BME280;41397;49.972;18.944;2023-04-16T07:08:35;101807.73;;;19.14;50.68
55550;BME280;41397;49.972;18.944;2023-04-16T07:14:42;101811.26;;;18.88;49.72
55550;BME280;41397;49.972;18.944;2023-04-16T07:17:44;101811.36;;;18.96;50.28
55550;BME280;41397;49.972;18.944;2023-04-16T07:20:48;101817.77;;;18.97;50.19
55550;BME280;41397;49.972;18.944;2023-04-16T07:27:28;101825.88;;;19.44;48.85
55550;BME280;41397;49.972;18.944;2023-04-16T07:30:29;101824.13;;;19.07;48.76
55550;BME280;41397;49.972;18.944;2023-04-16T07:33:41;101828.85;;;18.97;49.25
55550;BME280;41397;49.972;18.944;2023-04-16T07:36:42;101826.75;;;18.71;48.79
55550;BME280;41397;49.972;18.944;2023-04-16T07:39:44;101840.92;;;18.78;49.39
55550;BME280;41397;49.972;18.944;2023-04-16T07:42:45;101842.23;;;19.01;48.89
55550;BME280;41397;49.972;18.944;2023-04-16T07:45:49;101849.18;;;19.15;49.49
55550;BME280;41397;49.972;18.944;2023-04-16T07:48:50;101854.18;;;19.29;49.47
55550;BME280;41397;49.972;18.944;2023-04-16T07:51:51;101850.38;;;19.48;47.86
55550;BME280;41397;49.972;18.944;2023-04-16T07:54:53;101855.63;;;19.69;47.65
55550;BME280;41397;49.972;18.944;2023-04-16T07:57:56;101859.34;;;19.60;47.21
55550;BME280;41397;49.972;18.944;2023-04-16T08:01:00;101850.34;;;19.76;48.40
55550;BME280;41397;49.972;18.944;2023-04-16T08:04:08;101845.05;;;20.09;47.62
55550;BME280;41397;49.972;18.944;2023-04-16T08:07:09;101843.63;;;20.31;47.22
55550;BME280;41397;49.972;18.944;2023-04-16T08:10:11;101848.85;;;20.34;46.56
55550;BME280;41397;49.972;18.944;2023-04-16T08:13:13;101842.10;;;20.36;45.72
55550;BME280;41397;49.972;18.944;2023-04-16T08:16:14;101849.67;;;20.26;45.86
55550;BME280;41397;49.972;18.944;2023-04-16T08:19:15;101849.20;;;20.31;46.35
55550;BME280;41397;49.972;18.944;2023-04-16T08:35:49;101846.80;;;20.36;45.47
55550;BME280;41397;49.972;18.944;2023-04-16T08:38:51;101843.73;;;20.47;46.56
55550;BME280;41397;49.972;18.944;2023-04-16T08:41:53;101843.63;;;20.57;44.45
55550;BME280;41397;49.972;18.944;2023-04-16T08:45:11;101844.61;;;20.74;44.87
55550;BME280;41397;49.972;18.944;2023-04-16T08:48:08;101855.20;;;20.78;43.34
55550;BME280;41397;49.972;18.944;2023-04-16T08:51:12;101844.12;;;20.87;42.65
55550;BME280;41397;49.972;18.944;2023-04-16T08:54:30;101847.14;;;21.01;42.51
55550;BME280;41397;49.972;18.944;2023-04-16T09:04:30;101848.44;;;21.23;43.18
55550;BME280;41397;49.972;18.944;2023-04-16T09:07:43;101851.71;;;21.19;40.85
55550;BME280;41397;49.972;18.944;2023-04-16T09:10:47;101854.09;;;21.05;40.40
55550;BME280;41397;49.972;18.944;2023-04-16T09:13:56;101855.34;;;21.11;41.88
55550;BME280;41397;49.972;18.944;2023-04-16T09:16:57;101858.70;;;21.23;41.90
55550;BME280;41397;49.972;18.944;2023-04-16T09:20:07;101859.05;;;21.28;42.62
55550;BME280;41397;49.972;18.944;2023-04-16T09:23:11;101849.02;;;21.43;41.13
55550;BME280;41397;49.972;18.944;2023-04-16T09:26:12;101858.58;;;21.41;40.87
55550;BME280;41397;49.972;18.944;2023-04-16T09:32:38;101850.58;;;21.38;41.12
55550;BME280;41397;49.972;18.944;2023-04-16T09:35:48;101852.30;;;21.39;42.26
55550;BME280;41397;49.972;18.944;2023-04-16T09:38:53;101853.23;;;21.56;41.50
55550;BME280;41397;49.972;18.944;2023-04-16T09:41:56;101858.60;;;21.49;40.27
55550;BME280;41397;49.972;18.944;2023-04-16T09:44:58;101861.29;;;21.24;39.95
55550;BME280;41397;49.972;18.944;2023-04-16T09:48:05;101863.68;;;21.11;40.34
55550;BME280;41397;49.972;18.944;2023-04-16T09:51:06;101860.20;;;20.67;39.54
55550;BME280;41397;49.972;18.944;2023-04-16T09:54:08;101868.68;;;20.65;39.68
55550;BME280;41397;49.972;18.944;2023-04-16T09:57:10;101860.78;;;20.52;39.55
55550;BME280;41397;49.972;18.944;2023-04-16T10:00:17;101867.36;;;20.51;38.86
55550;BME280;41397;49.972;18.944;2023-04-16T10:06:31;101874.83;;;20.51;39.44
55550;BME280;41397;49.972;18.944;2023-04-16T10:09:36;101873.52;;;20.55;38.17
55550;BME280;41397;49.972;18.944;2023-04-16T10:12:38;101876.83;;;20.58;37.11
55550;BME280;41397;49.972;18.944;2023-04-16T10:15:46;101874.05;;;20.58;36.75
55550;BME280;41397;49.972;18.944;2023-04-16T10:18:48;101873.81;;;20.52;37.46
55550;BME280;41397;49.972;18.944;2023-04-16T10:21:49;101874.73;;;20.34;38.42
55550;BME280;41397;49.972;18.944;2023-04-16T10:24:51;101877.41;;;20.44;37.03
55550;BME280;41397;49.972;18.944;2023-04-16T10:27:54;101881.91;;;20.45;35.42
55550;BME280;41397;49.972;18.944;2023-04-16T10:30:57;101881.77;;;20.47;36.80
55550;BME280;41397;49.972;18.944;2023-04-16T10:34:00;101881.77;;;20.47;36.54
55550;BME280;41397;49.972;18.944;2023-04-16T10:37:02;101881.25;;;20.51;37.84
55550;BME280;41397;49.972;18.944;2023-04-16T10:43:19;101885.54;;;20.64;40.15
55550;BME280;41397;49.972;18.944;2023-04-16T10:46:24;101874.96;;;20.67;41.14
55550;BME280;41397;49.972;18.944;2023-04-16T10:49:28;101882.33;;;20.76;40.31
55550;BME280;41397;49.972;18.944;2023-04-16T10:52:29;101881.77;;;20.73;39.36
55550;BME280;41397;49.972;18.944;2023-04-16T10:55:31;101883.63;;;20.64;38.28
55550;BME280;41397;49.972;18.944;2023-04-16T10:58:36;101890.38;;;20.61;39.38
55550;BME280;41397;49.972;18.944;2023-04-16T11:01:50;101886.95;;;20.68;39.51
55550;BME280;41397;49.972;18.944;2023-04-16T11:04:55;101888.14;;;20.65;38.79
55550;BME280;41397;49.972;18.944;2023-04-16T11:08:11;101891.81;;;20.66;39.31
55550;BME280;41397;49.972;18.944;2023-04-16T11:11:08;101889.19;;;20.64;39.60
55550;BME280;41397;49.972;18.944;2023-04-16T11:14:12;101895.41;;;20.58;39.10
55550;BME280;41397;49.972;18.944;2023-04-16T11:17:14;101887.46;;;20.63;39.52
55550;BME280;41397;49.972;18.944;2023-04-16T11:20:23;101893.74;;;20.73;38.75
55550;BME280;41397;49.972;18.944;2023-04-16T11:23:25;101891.80;;;21.00;39.12
55550;BME280;41397;49.972;18.944;2023-04-16T11:26:27;101894.49;;;21.18;37.52
55550;BME280;41397;49.972;18.944;2023-04-16T11:29:30;101891.05;;;21.32;36.55
55550;BME280;41397;49.972;18.944;2023-04-16T11:32:36;101886.41;;;21.41;36.97
55550;BME280;41397;49.972;18.944;2023-04-16T11:35:38;101892.70;;;21.51;37.09
55550;BME280;41397;49.972;18.944;2023-04-16T11:38:43;101892.03;;;21.65;36.98
55550;BME280;41397;49.972;18.944;2023-04-16T11:41:48;101896.20;;;21.61;35.44
55550;BME280;41397;49.972;18.944;2023-04-16T11:44:55;101899.88;;;21.78;35.97
55550;BME280;41397;49.972;18.944;2023-04-16T11:47:57;101889.10;;;21.83;36.60
55550;BME280;41397;49.972;18.944;2023-04-16T11:50:59;101885.62;;;21.89;36.97
55550;BME280;41397;49.972;18.944;2023-04-16T11:54:01;101891.19;;;21.89;36.19
55550;BME280;41397;49.972;18.944;2023-04-16T11:57:02;101888.55;;;21.88;34.92
55550;BME280;41397;49.972;18.944;2023-04-16T12:00:07;101880.91;;;21.90;35.25
55550;BME280;41397;49.972;18.944;2023-04-16T12:03:13;101887.70;;;21.87;34.79
55550;BME280;41397;49.972;18.944;2023-04-16T12:06:15;101885.09;;;21.78;34.77
55550;BME280;41397;49.972;18.944;2023-04-16T12:09:22;101885.62;;;21.81;35.71
55550;BME280;41397;49.972;18.944;2023-04-16T12:12:29;101881.09;;;21.80;34.93
55550;BME280;41397;49.972;18.944;2023-04-16T12:21:59;101884.21;;;21.61;35.14
55550;BME280;41397;49.972;18.944;2023-04-16T12:28:09;101878.95;;;21.49;35.58
55550;BME280;41397;49.972;18.944;2023-04-16T12:31:10;101875.13;;;21.50;36.10
55550;BME280;41397;49.972;18.944;2023-04-16T12:34:12;101875.32;;;21.65;35.79
55550;BME280;41397;49.972;18.944;2023-04-16T12:37:15;101868.54;;;21.76;36.65
55550;BME280;41397;49.972;18.944;2023-04-16T12:40:17;101872.04;;;21.86;36.32
55550;BME280;41397;49.972;18.944;2023-04-16T12:43:19;101863.49;;;21.96;35.99
55550;BME280;41397;49.972;18.944;2023-04-16T12:46:21;101865.41;;;22.04;35.57
55550;BME280;41397;49.972;18.944;2023-04-16T12:49:23;101863.84;;;22.01;34.50
55550;BME280;41397;49.972;18.944;2023-04-16T12:52:25;101858.12;;;22.11;35.35
55550;BME280;41397;49.972;18.944;2023-04-16T12:55:27;101859.84;;;22.12;34.92
55550;BME280;41397;49.972;18.944;2023-04-16T12:58:28;101854.81;;;22.07;35.25
55550;BME280;41397;49.972;18.944;2023-04-16T13:01:30;101857.76;;;21.98;33.63
55550;BME280;41397;49.972;18.944;2023-04-16T13:04:31;101857.25;;;22.02;34.56
55550;BME280;41397;49.972;18.944;2023-04-16T13:07:33;101857.41;;;22.09;35.41
55550;BME280;41397;49.972;18.944;2023-04-16T13:10:34;101851.13;;;22.07;34.67
55550;BME280;41397;49.972;18.944;2023-04-16T13:13:36;101857.60;;;22.15;35.24
55550;BME280;41397;49.972;18.944;2023-04-16T13:16:37;101858.48;;;22.24;35.46
55550;BME280;41397;49.972;18.944;2023-04-16T13:19:39;101863.52;;;22.21;35.45
55550;BME280;41397;49.972;18.944;2023-04-16T13:22:40;101862.13;;;22.25;34.35
55550;BME280;41397;49.972;18.944;2023-04-16T13:25:42;101863.34;;;22.30;34.43
55550;BME280;41397;49.972;18.944;2023-04-16T13:28:45;101857.41;;;22.33;34.37
55550;BME280;41397;49.972;18.944;2023-04-16T13:31:46;101852.70;;;22.34;34.05
55550;BME280;41397;49.972;18.944;2023-04-16T13:34:48;101845.41;;;22.33;33.71
55550;BME280;41397;49.972;18.944;2023-04-16T13:37:50;101852.36;;;22.29;34.63
55550;BME280;41397;49.972;18.944;2023-04-16T13:40:52;101848.16;;;22.41;34.88
55550;BME280;41397;49.972;18.944;2023-04-16T13:43:54;101846.41;;;22.48;34.56
55550;BME280;41397;49.972;18.944;2023-04-16T13:46:55;101845.52;;;22.48;33.93
55550;BME280;41397;49.972;18.944;2023-04-16T13:49:57;101843.93;;;22.53;34.43
55550;BME280;41397;49.972;18.944;2023-04-16T13:53:00;101842.70;;;22.56;34.37
55550;BME280;41397;49.972;18.944;2023-04-16T13:56:02;101840.12;;;22.54;33.73
55550;BME280;41397;49.972;18.944;2023-04-16T13:59:05;101849.02;;;22.50;33.91
55550;BME280;41397;49.972;18.944;2023-04-16T14:02:12;101842.09;;;22.37;33.10
55550;BME280;41397;49.972;18.944;2023-04-16T14:05:14;101840.54;;;22.27;33.04
55550;BME280;41397;49.972;18.944;2023-04-16T14:08:16;101849.42;;;22.22;33.65
55550;BME280;41397;49.972;18.944;2023-04-16T14:11:24;101844.01;;;22.21;34.28
55550;BME280;41397;49.972;18.944;2023-04-16T14:14:28;101845.77;;;22.22;34.07
55550;BME280;41397;49.972;18.944;2023-04-16T14:17:31;101850.09;;;22.16;32.85
55550;BME280;41397;49.972;18.944;2023-04-16T14:20:34;101855.83;;;22.14;33.87
55550;BME280;41397;49.972;18.944;2023-04-16T14:23:36;101845.91;;;22.12;34.85
55550;BME280;41397;49.972;18.944;2023-04-16T14:26:38;101848.35;;;21.90;35.37
55550;BME280;41397;49.972;18.944;2023-04-16T14:29:39;101844.35;;;21.85;35.44
55550;BME280;41397;49.972;18.944;2023-04-16T14:32:42;101839.33;;;21.80;35.61
55550;BME280;41397;49.972;18.944;2023-04-16T14:35:44;101829.06;;;21.72;36.05
55550;BME280;41397;49.972;18.944;2023-04-16T14:38:46;101843.46;;;21.52;35.47
55550;BME280;41397;49.972;18.944;2023-04-16T14:41:48;101842.38;;;21.36;35.53
55550;BME280;41397;49.972;18.944;2023-04-16T14:44:50;101841.45;;;21.19;35.30
55550;BME280;41397;49.972;18.944;2023-04-16T14:47:52;101836.09;;;21.26;35.71
55550;BME280;41397;49.972;18.944;2023-04-16T14:50:54;101842.37;;;21.28;35.81
55550;BME280;41397;49.972;18.944;2023-04-16T14:53:56;101844.44;;;21.26;35.64
55550;BME280;41397;49.972;18.944;2023-04-16T14:56:58;101841.08;;;21.14;35.73
55550;BME280;41397;49.972;18.944;2023-04-16T14:59:59;101844.76;;;21.15;35.82
55550;BME280;41397;49.972;18.944;2023-04-16T15:03:04;101846.29;;;21.01;35.48
55550;BME280;41397;49.972;18.944;2023-04-16T15:06:06;101845.35;;;20.92;35.80
55550;BME280;41397;49.972;18.944;2023-04-16T15:09:08;101847.83;;;20.95;36.00
55550;BME280;41397;49.972;18.944;2023-04-16T15:12:09;101842.45;;;21.02;36.28
55550;BME280;41397;49.972;18.944;2023-04-16T15:15:11;101835.68;;;21.04;36.03
55550;BME280;41397;49.972;18.944;2023-04-16T15:18:13;101839.67;;;21.02;35.33
55550;BME280;41397;49.972;18.944;2023-04-16T15:21:16;101838.62;;;21.03;35.47
55550;BME280;41397;49.972;18.944;2023-04-16T15:24:17;101836.39;;;21.06;36.12
55550;BME280;41397;49.972;18.944;2023-04-16T15:27:19;101846.80;;;21.04;35.71
55550;BME280;41397;49.972;18.944;2023-04-16T15:30:20;101846.97;;;21.03;35.97
55550;BME280;41397;49.972;18.944;2023-04-16T15:33:22;101855.09;;;20.88;35.67
55550;BME280;41397;49.972;18.944;2023-04-16T15:36:23;101847.95;;;20.86;36.11
55550;BME280;41397;49.972;18.944;2023-04-16T15:39:26;101851.41;;;20.79;36.18
55550;BME280;41397;49.972;18.944;2023-04-16T15:42:28;101846.53;;;20.81;36.02
55550;BME280;41397;49.972;18.944;2023-04-16T15:45:31;101853.66;;;20.84;36.14
55550;BME280;41397;49.972;18.944;2023-04-16T15:48:32;101846.22;;;20.84;35.70
55550;BME280;41397;49.972;18.944;2023-04-16T15:51:34;101838.90;;;20.83;35.53
55550;BME280;41397;49.972;18.944;2023-04-16T15:54:36;101851.18;;;20.73;35.50
55550;BME280;41397;49.972;18.944;2023-04-16T15:57:37;101849.45;;;20.72;35.67
55550;BME280;41397;49.972;18.944;2023-04-16T16:00:39;101852.56;;;20.69;35.93
55550;BME280;41397;49.972;18.944;2023-04-16T16:03:47;101859.19;;;20.76;36.74
55550;BME280;41397;49.972;18.944;2023-04-16T16:06:48;101859.19;;;20.76;35.90
55550;BME280;41397;49.972;18.944;2023-04-16T16:09:50;101859.86;;;20.70;36.11
55550;BME280;41397;49.972;18.944;2023-04-16T16:12:52;101858.80;;;20.63;36.02
55550;BME280;41397;49.972;18.944;2023-04-16T16:15:57;101853.47;;;20.51;36.40
55550;BME280;41397;49.972;18.944;2023-04-16T16:18:58;101866.25;;;20.36;36.61
55550;BME280;41397;49.972;18.944;2023-04-16T16:22:00;101852.16;;;20.37;36.76
55550;BME280;41397;49.972;18.944;2023-04-16T16:25:02;101866.44;;;20.43;36.98
55550;BME280;41397;49.972;18.944;2023-04-16T16:28:04;101867.83;;;20.38;36.65
55550;BME280;41397;49.972;18.944;2023-04-16T16:31:06;101871.89;;;20.26;37.19
55550;BME280;41397;49.972;18.944;2023-04-16T16:34:08;101864.75;;;20.24;37.52